Terminal Aerodrome Forecast
Issued by NWS Sterling, VA

Current Version | Previous Version | Text Only | Print | Product List | Glossary Off
Versions: 1 2 3 4 5 6 7 8 9 10 11 12 13 14 15 16 17 18 19 20 21 22 23

203
FTUS41 KLWX 172157 AAB
TAFIAD
TAF AMD
KIAD 172157Z 1722/1824 33012G20KT P6SM FEW100
     FM180500 30008KT P6SM FEW100=

USA.gov is the U.S. government's official web portal to all federal, state and local government web resources and services.